Time;durP1;ratioP1;P1;durP2;ratioP2;P2;SDS_P1;SDS_P2;PMS_P1;PMS_P2;Temp;Humidity;BMP_temperature;BMP_pressure;BME280_temperature;BME280_humidity;BME280_pressure;Samples;Min_cycle;Max_cycle;Signal;HPM_P1;HPM_P2
2023/06/24 00:02:23;;;;;;;13.00;11.90;;;23.90;99.90;;;;;;4885787;29;20028;-92
2023/06/24 00:04:51;;;;;;;15.40;13.07;;;23.70;99.90;;;;;;4870462;29;20060;-93
2023/06/24 00:07:21;;;;;;;13.63;12.32;;;23.80;99.90;;;;;;4885108;29;20032;-92
2023/06/24 00:09:48;;;;;;;15.57;12.65;;;23.90;99.90;;;;;;4885647;29;20033;-92
2023/06/24 00:12:21;;;;;;;14.10;12.80;;;23.90;99.90;;;;;;4885505;29;20516;-91
2023/06/24 00:14:47;;;;;;;17.15;12.98;;;23.80;99.90;;;;;;4884701;29;20032;-92
2023/06/24 00:17:16;;;;;;;14.60;13.18;;;23.60;99.90;;;;;;4851522;29;20029;-91
2023/06/24 00:19:44;;;;;;;13.80;12.40;;;23.50;99.90;;;;;;4866687;29;20073;-91
2023/06/24 00:22:10;;;;;;;13.55;12.43;;;23.40;99.90;;;;;;4866933;29;20056;-91
2023/06/24 00:24:37;;;;;;;13.00;11.93;;;23.50;99.90;;;;;;4866885;29;20029;-91
2023/06/24 00:27:04;;;;;;;20.25;12.30;;;23.50;99.90;;;;;;4851263;29;20056;-91
2023/06/24 00:29:32;;;;;;;13.82;12.43;;;23.50;99.90;;;;;;4866808;29;20056;-92
2023/06/24 00:32:00;;;;;;;13.15;11.48;;;23.50;99.90;;;;;;4850312;29;20025;-91
2023/06/24 00:34:27;;;;;;;12.35;11.07;;;23.50;99.90;;;;;;4850187;29;20037;-92
2023/06/24 00:36:54;;;;;;;12.13;10.98;;;23.60;99.90;;;;;;4865448;29;20104;-91
2023/06/24 00:39:22;;;;;;;12.57;11.32;;;23.50;99.90;;;;;;4865677;29;20085;-92
2023/06/24 00:41:48;;;;;;;17.60;11.48;;;23.50;99.90;;;;;;4865924;29;20169;-92
2023/06/24 00:44:15;;;;;;;12.52;11.30;;;23.50;99.90;;;;;;4850163;29;20033;-91
2023/06/24 00:46:44;;;;;;;13.20;11.90;;;23.40;99.90;;;;;;4851414;29;20029;-91
2023/06/24 00:49:15;;;;;;;14.38;12.05;;;23.50;99.90;;;;;;4867496;29;20029;-91
2023/06/24 00:51:47;;;;;;;15.65;11.35;;;23.50;99.90;;;;;;4865246;29;20029;-92
2023/06/24 00:54:13;;;;;;;12.15;10.98;;;23.50;99.90;;;;;;4865060;29;20112;-91
2023/06/24 00:56:42;;;;;;;11.63;10.60;;;23.50;99.90;;;;;;4868349;29;20028;-92
2023/06/24 00:59:13;;;;;;;12.60;11.38;;;23.50;99.90;;;;;;4883961;29;20040;-93
2023/06/24 01:01:40;;;;;;;14.00;10.70;;;23.60;99.90;;;;;;4883672;29;20115;-91
2023/06/24 01:04:07;;;;;;;10.95;10.00;;;23.60;99.90;;;;;;4868119;29;20061;-91
2023/06/24 01:06:43;;;;;;;11.30;10.00;;;23.60;99.90;;;;;;4868225;29;20024;-92
2023/06/24 01:09:13;;;;;;;11.20;10.18;;;23.60;99.90;;;;;;4868801;29;20069;-91
2023/06/24 01:11:39;;;;;;;11.32;10.27;;;23.60;99.90;;;;;;4856958;29;20048;-92
2023/06/24 01:14:06;;;;;;;10.63;9.70;;;23.60;99.90;;;;;;4866377;29;20038;-91
2023/06/24 01:16:47;;;;;;;13.57;11.10;;;23.50;99.90;;;;;;4869763;29;20033;-91
2023/06/24 01:20:14;;;;;;;11.40;9.95;;;23.50;99.90;;;;;;4883520;29;20045;-91
2023/06/24 01:23:06;;;;;;;14.68;10.80;;;23.40;99.90;;;;;;4774507;30;20031;-91
2023/06/24 01:26:09;;;;;;;11.65;10.55;;;23.30;99.90;;;;;;4774308;30;20035;-92
2023/06/24 01:29:16;;;;;;;11.18;10.02;;;23.30;99.90;;;;;;4773866;30;20043;-91
2023/06/24 01:31:54;;;;;;;13.45;10.35;;;23.40;99.90;;;;;;4792690;29;20035;-93
2023/06/24 01:34:36;;;;;;;12.85;10.25;;;23.30;99.90;;;;;;4790539;29;20199;-93
2023/06/24 01:37:26;;;;;;;10.43;9.50;;;23.30;99.90;;;;;;4807088;29;20037;-91
2023/06/24 01:40:10;;;;;;;12.93;9.55;;;23.30;99.90;;;;;;4807128;29;20051;-93
2023/06/24 01:42:42;;;;;;;12.45;9.90;;;23.30;99.90;;;;;;4819674;29;20128;-92
2023/06/24 01:45:16;;;;;;;9.98;9.10;;;23.40;99.90;;;;;;4825049;29;20034;-92
2023/06/24 01:47:47;;;;;;;;;;;23.20;99.90;;;;;;4833561;29;20067;-90
2023/06/24 01:50:16;;;;;;;14.52;9.73;;;23.10;99.90;;;;;;4840929;29;19948;-92
2023/06/24 01:52:45;;;;;;;15.52;9.55;;;23.10;99.90;;;;;;4843087;29;20036;-93
2023/06/24 01:55:18;;;;;;;19.25;9.68;;;23.20;99.90;;;;;;4864658;29;20065;-91
2023/06/24 01:57:50;;;;;;;10.75;9.02;;;23.30;99.90;;;;;;4864596;29;20033;-91
2023/06/24 02:00:17;;;;;;;11.02;8.57;;;23.30;99.90;;;;;;4864013;29;20049;-92
2023/06/24 02:02:54;;;;;;;13.05;8.90;;;23.30;99.90;;;;;;4865636;29;20029;-91
2023/06/24 02:05:22;;;;;;;9.23;8.32;;;23.30;99.90;;;;;;4848675;29;20033;-91
2023/06/24 02:07:51;;;;;;;12.70;9.25;;;23.30;99.90;;;;;;4864726;29;20061;-92
2023/06/24 02:10:18;;;;;;;11.18;8.57;;;23.40;99.90;;;;;;4864205;29;20044;-90
2023/06/24 02:12:48;;;;;;;11.48;8.55;;;23.40;99.90;;;;;;4835202;29;20033;-91
2023/06/24 02:15:16;;;;;;;11.65;8.48;;;23.50;99.90;;;;;;4845449;29;20387;-92
2023/06/24 02:17:44;;;;;;;12.00;8.60;;;23.50;99.90;;;;;;4864227;29;20053;-92
2023/06/24 02:20:11;;;;;;;10.95;9.20;;;23.30;99.90;;;;;;4864983;29;20045;-92
2023/06/24 02:22:40;;;;;;;10.65;8.63;;;23.40;99.90;;;;;;4864914;29;20039;-91
2023/06/24 02:25:08;;;;;;;15.00;7.80;;;23.50;99.90;;;;;;4864691;29;20037;-91
2023/06/24 02:27:37;;;;;;;10.35;7.22;;;23.40;99.90;;;;;;4864685;29;20033;-92
2023/06/24 02:30:07;;;;;;;9.35;7.22;;;23.40;99.90;;;;;;4864688;29;20025;-92
2023/06/24 02:32:35;;;;;;;7.97;6.85;;;23.50;99.90;;;;;;4864950;29;20061;-91
2023/06/24 02:35:07;;;;;;;10.07;7.90;;;23.60;99.90;;;;;;4864568;29;20025;-92
2023/06/24 02:37:34;;;;;;;10.32;7.15;;;23.70;99.90;;;;;;4864657;29;20044;-91
2023/06/24 02:40:01;;;;;;;10.45;7.78;;;23.70;99.90;;;;;;4864600;29;20403;-93
2023/06/24 02:42:31;;;;;;;12.10;7.78;;;23.70;99.90;;;;;;4854025;29;20548;-91
2023/06/24 02:45:00;;;;;;;8.63;7.70;;;23.70;99.90;;;;;;4845359;29;20038;-91
2023/06/24 02:47:27;;;;;;;9.70;7.72;;;23.70;99.90;;;;;;4845158;29;20030;-92
2023/06/24 02:49:57;;;;;;;10.57;8.10;;;23.60;99.90;;;;;;4845267;29;20120;-92
2023/06/24 02:52:28;;;;;;;10.23;7.63;;;23.50;99.90;;;;;;4830272;29;20432;-91
2023/06/24 02:55:04;;;;;;;14.95;8.50;;;23.40;99.90;;;;;;4860620;29;20078;-92
2023/06/24 02:57:48;;;;;;;8.50;7.60;;;23.40;99.90;;;;;;4863696;29;20402;-93
2023/06/24 03:00:25;;;;;;;11.77;8.13;;;23.30;99.90;;;;;;4864917;29;20509;-93
2023/06/24 03:03:24;;;;;;;13.55;8.63;;;23.30;99.90;;;;;;4822934;29;20370;-92
2023/06/24 03:05:56;;;;;;;11.55;8.02;;;23.30;99.90;;;;;;4808405;29;20034;-91
2023/06/24 03:08:25;;;;;;;10.85;8.25;;;23.30;99.90;;;;;;4825815;29;20046;-91
2023/06/24 03:10:56;;;;;;;13.63;7.53;;;23.30;99.90;;;;;;4827626;29;20121;-90
2023/06/24 03:13:25;;;;;;;17.80;8.20;;;23.20;99.90;;;;;;4812162;29;20579;-91
2023/06/24 03:16:12;;;;;;;12.50;8.35;;;23.20;99.90;;;;;;4807857;29;20060;-92
2023/06/24 03:18:46;;;;;;;16.15;7.93;;;23.20;99.90;;;;;;4809009;29;20102;-91
2023/06/24 03:21:12;;;;;;;11.70;7.60;;;23.10;99.90;;;;;;4823830;29;20042;-93
2023/06/24 03:23:42;;;;;;;14.48;7.97;;;23.10;99.90;;;;;;4805653;29;20030;-92
2023/06/24 03:26:11;;;;;;;11.20;7.82;;;23.00;99.90;;;;;;4822436;29;20049;-92
2023/06/24 03:28:38;;;;;;;10.30;7.75;;;23.00;99.90;;;;;;4808782;29;20026;-91
2023/06/24 03:31:15;;;;;;;10.13;7.53;;;23.00;99.90;;;;;;4809546;29;20026;-91
2023/06/24 03:33:44;;;;;;;11.68;8.15;;;23.10;99.90;;;;;;4808714;29;20035;-92
2023/06/24 03:36:12;;;;;;;9.60;7.40;;;23.20;99.90;;;;;;4808906;29;20131;-92
2023/06/24 03:38:40;;;;;;;9.40;7.63;;;23.20;99.90;;;;;;4811009;29;20531;-91
2023/06/24 03:41:08;;;;;;;12.55;7.85;;;23.20;99.90;;;;;;4845961;29;20041;-90
2023/06/24 03:43:34;;;;;;;14.98;8.23;;;23.20;99.90;;;;;;4895426;29;20574;-91
2023/06/24 03:46:04;;;;;;;11.32;7.78;;;23.20;99.90;;;;;;4878415;29;20032;-92
2023/06/24 03:48:30;;;;;;;11.15;7.72;;;23.30;99.90;;;;;;4885599;29;20084;-92
2023/06/24 03:50:57;;;;;;;9.85;6.78;;;23.30;99.90;;;;;;4886169;29;20033;-92
2023/06/24 03:53:24;;;;;;;11.40;7.78;;;23.30;99.90;;;;;;4885688;29;20088;-92
2023/06/24 03:55:51;;;;;;;9.70;7.43;;;23.40;99.90;;;;;;4884816;29;20439;-92
2023/06/24 03:58:20;;;;;;;11.15;7.40;;;23.50;99.90;;;;;;4884792;29;20025;-94
2023/06/24 04:00:49;;;;;;;13.15;7.53;;;23.60;99.90;;;;;;4885374;29;20051;-94
2023/06/24 04:03:19;;;;;;;10.52;8.45;;;23.60;99.90;;;;;;4885150;29;20028;-93
2023/06/24 04:05:46;;;;;;;17.00;8.85;;;23.70;99.90;;;;;;4885303;29;20033;-93
2023/06/24 04:08:12;;;;;;;13.70;9.68;;;23.90;99.90;;;;;;4885973;29;20025;-93
2023/06/24 04:10:39;;;;;;;10.07;7.88;;;24.00;99.90;;;;;;4885876;29;20041;-93
2023/06/24 04:13:05;;;;;;;9.60;8.32;;;24.10;99.90;;;;;;4885484;29;20447;-93
2023/06/24 04:15:32;;;;;;;9.98;8.38;;;24.20;99.90;;;;;;4870814;29;20029;-93
2023/06/24 04:18:00;;;;;;;23.27;9.32;;;24.30;99.90;;;;;;4867987;29;20124;-93
2023/06/24 04:20:26;;;;;;;11.75;9.02;;;24.40;99.90;;;;;;4866825;29;20049;-93
2023/06/24 04:22:53;;;;;;;10.90;9.25;;;24.50;99.90;;;;;;4867079;29;20479;-93
2023/06/24 04:25:20;;;;;;;10.02;8.65;;;24.50;99.90;;;;;;4879368;29;20506;-95
2023/06/24 04:27:46;;;;;;;14.32;9.32;;;24.60;99.90;;;;;;4885522;29;20024;-93
2023/06/24 04:30:16;;;;;;;10.73;9.63;;;24.50;99.90;;;;;;4885346;29;20152;-94
2023/06/24 04:32:42;;;;;;;11.15;9.82;;;24.40;99.90;;;;;;4884850;29;20034;-92
2023/06/24 04:35:09;;;;;;;16.00;9.63;;;24.30;99.90;;;;;;4884245;29;20032;-93
2023/06/24 04:37:37;;;;;;;12.70;9.02;;;24.40;99.90;;;;;;4865849;29;20441;-92
2023/06/24 04:40:05;;;;;;;10.85;9.70;;;24.50;99.90;;;;;;4865654;29;20048;-93
2023/06/24 04:42:32;;;;;;;11.20;8.60;;;24.50;99.90;;;;;;4865825;29;20025;-94
2023/06/24 04:45:05;;;;;;;10.27;8.98;;;24.70;99.90;;;;;;4865251;29;20040;-94
2023/06/24 04:47:31;;;;;;;13.20;10.10;;;25.00;99.90;;;;;;4865541;29;20049;-93
2023/06/24 04:49:58;;;;;;;11.15;9.70;;;25.30;99.90;;;;;;4850082;29;20391;-93
2023/06/24 04:52:24;;;;;;;17.50;11.20;;;26.10;99.90;;;;;;4865303;29;20391;-93
2023/06/24 04:54:51;;;;;;;13.20;12.05;;;26.70;99.90;;;;;;4858003;29;20041;-93
2023/06/24 04:57:28;;;;;;;14.23;12.73;;;26.90;99.90;;;;;;4864595;29;20033;-93
2023/06/24 04:59:54;;;;;;;14.93;13.55;;;27.00;99.90;;;;;;4867468;29;20041;-94
2023/06/24 05:02:21;;;;;;;12.93;11.93;;;26.60;99.90;;;;;;4884213;29;20010;-93
2023/06/24 05:04:48;;;;;;;12.98;11.80;;;26.40;99.90;;;;;;4875825;29;20097;-93
2023/06/24 05:07:14;;;;;;;15.82;12.02;;;26.50;99.90;;;;;;4848328;29;20029;-93
2023/06/24 05:09:41;;;;;;;11.88;10.27;;;26.10;99.90;;;;;;4838410;29;20061;-93
2023/06/24 05:12:08;;;;;;;10.93;9.65;;;25.60;99.90;;;;;;4846936;29;20033;-93
2023/06/24 05:14:35;;;;;;;10.65;9.65;;;25.50;99.90;;;;;;4832240;29;20033;-93
2023/06/24 05:17:03;;;;;;;12.32;8.20;;;25.30;99.90;;;;;;4839493;29;20033;-92
2023/06/24 05:19:29;;;;;;;9.15;8.30;;;25.20;99.90;;;;;;4844211;29;20097;-94
2023/06/24 05:21:56;;;;;;;13.10;8.90;;;25.30;99.90;;;;;;4844168;29;20037;-93
2023/06/24 05:24:23;;;;;;;13.35;8.93;;;25.60;99.90;;;;;;4844400;29;20033;-94
2023/06/24 05:26:51;;;;;;;12.45;9.00;;;25.90;99.90;;;;;;4835420;29;20040;-92
2023/06/24 05:29:17;;;;;;;10.30;9.30;;;25.80;99.90;;;;;;4847544;29;20037;-94
2023/06/24 05:31:44;;;;;;;11.27;8.63;;;25.50;99.90;;;;;;4847564;29;20034;-94
2023/06/24 05:34:11;;;;;;;15.48;8.55;;;25.30;99.90;;;;;;4847624;29;20033;-92
2023/06/24 05:36:37;;;;;;;12.15;8.00;;;24.90;99.90;;;;;;4869958;29;20021;-92
2023/06/24 05:39:07;;;;;;;19.55;9.30;;;24.70;99.90;;;;;;4884151;29;20025;-94
2023/06/24 05:41:35;;;;;;;11.98;7.80;;;24.50;99.90;;;;;;4872227;29;20033;-93
2023/06/24 05:44:10;;;;;;;15.00;7.65;;;24.50;99.90;;;;;;4866068;29;20033;-93
2023/06/24 05:46:37;;;;;;;15.43;7.55;;;24.40;99.90;;;;;;4865329;29;20058;-93
2023/06/24 05:49:06;;;;;;;12.65;6.88;;;24.30;99.90;;;;;;4864584;29;20028;-93
2023/06/24 05:51:33;;;;;;;15.45;7.40;;;24.30;99.90;;;;;;4864515;29;20039;-93
2023/06/24 05:53:59;;;;;;;11.50;6.03;;;24.30;99.90;;;;;;4873345;29;20128;-93
2023/06/24 05:56:26;;;;;;;11.75;7.05;;;24.30;99.90;;;;;;4883310;29;20033;-92
2023/06/24 05:58:52;;;;;;;14.30;6.90;;;24.30;99.90;;;;;;4876121;29;20048;-92
2023/06/24 06:01:19;;;;;;;13.68;7.07;;;24.30;99.90;;;;;;4864512;29;20402;-94
2023/06/24 06:03:46;;;;;;;17.70;6.97;;;24.30;99.90;;;;;;4848689;29;20029;-94
2023/06/24 06:06:12;;;;;;;18.88;7.10;;;24.30;99.90;;;;;;4863535;29;20037;-95
2023/06/24 06:08:39;;;;;;;13.02;7.20;;;24.40;99.90;;;;;;4864938;29;20119;-92
2023/06/24 06:11:05;;;;;;;11.00;6.57;;;24.50;99.90;;;;;;4879720;29;20058;-94
2023/06/24 06:13:35;;;;;;;16.77;6.78;;;24.60;99.90;;;;;;4883009;29;20036;-94
2023/06/24 06:16:05;;;;;;;14.00;6.35;;;24.60;99.90;;;;;;4882557;29;20033;-93
2023/06/24 06:18:31;;;;;;;10.23;6.43;;;24.70;99.90;;;;;;4882969;29;20075;-94
2023/06/24 06:20:58;;;;;;;12.40;7.40;;;24.70;99.90;;;;;;4882464;29;20032;-93
2023/06/24 06:23:27;;;;;;;18.65;7.25;;;24.70;99.90;;;;;;4882773;29;20077;-93
2023/06/24 06:25:53;;;;;;;22.15;7.20;;;24.70;99.90;;;;;;4883114;29;20032;-93
2023/06/24 06:28:20;;;;;;;19.08;7.32;;;24.80;99.90;;;;;;4879816;29;20036;-93
2023/06/24 06:30:47;;;;;;;13.95;7.85;;;24.80;99.90;;;;;;4868277;29;20115;-94
2023/06/24 06:33:13;;;;;;;13.10;7.13;;;24.80;99.90;;;;;;4883556;29;20490;-94
2023/06/24 06:35:39;;;;;;;11.90;6.72;;;24.70;99.90;;;;;;4883817;29;20036;-94
2023/06/24 06:38:06;;;;;;;11.98;7.10;;;24.70;99.90;;;;;;4883665;29;20029;-93
2023/06/24 06:40:35;;;;;;;14.85;7.57;;;24.50;99.90;;;;;;4868188;29;20036;-94
2023/06/24 06:43:02;;;;;;;13.98;6.68;;;24.40;99.90;;;;;;4883536;29;20035;-93
2023/06/24 06:45:28;;;;;;;13.52;7.57;;;24.50;99.90;;;;;;4867846;29;20028;-93
2023/06/24 06:47:55;;;;;;;15.65;7.25;;;24.60;99.90;;;;;;4883059;29;20035;-94
2023/06/24 06:50:22;;;;;;;14.15;7.65;;;24.70;99.90;;;;;;4883658;29;20100;-93
2023/06/24 06:52:48;;;;;;;11.18;6.85;;;24.70;99.90;;;;;;4868495;29;20032;-93
2023/06/24 06:55:15;;;;;;;12.73;7.28;;;24.70;99.90;;;;;;4878544;29;20041;-94
2023/06/24 06:57:41;;;;;;;11.60;6.70;;;24.70;99.90;;;;;;4856501;29;20032;-93
2023/06/24 07:00:09;;;;;;;16.60;7.80;;;24.70;99.90;;;;;;4882996;29;20462;-93
2023/06/24 07:02:35;;;;;;;21.45;7.25;;;24.70;99.90;;;;;;4882739;29;20363;-94
2023/06/24 07:05:02;;;;;;;21.50;7.97;;;24.70;99.90;;;;;;4882217;29;20040;-93
2023/06/24 07:07:32;;;;;;;14.93;7.53;;;24.60;99.90;;;;;;4881329;29;20020;-92
2023/06/24 07:10:02;;;;;;;13.10;7.07;;;24.50;99.90;;;;;;4881296;29;20123;-94
2023/06/24 07:12:29;;;;;;;14.52;7.97;;;24.50;99.90;;;;;;4863603;29;20120;-93
2023/06/24 07:14:55;;;;;;;14.90;7.72;;;24.50;99.90;;;;;;4860012;29;20025;-93
2023/06/24 07:17:22;;;;;;;13.45;7.20;;;24.50;99.90;;;;;;4868272;29;20029;-94
2023/06/24 12:31:42;;;;;;;22.98;21.27;;;32.40;99.90;;;;;;5931747;23;20201;-94
2023/06/24 12:57:07;;;;;;;24.08;22.00;;;32.40;99.90;;;;;;4922212;29;20099;-95
2023/06/24 12:59:43;;;;;;;23.17;21.48;;;32.10;99.90;;;;;;4875333;29;20048;-95
2023/06/24 13:12:44;;;;;;;20.95;19.27;;;31.70;99.90;;;;;;4941898;29;20055;-93
2023/06/24 13:15:22;;;;;;;21.33;19.42;;;31.70;99.90;;;;;;4917551;29;20035;-94
2023/06/24 13:18:07;;;;;;;20.38;18.85;;;31.50;99.90;;;;;;4918139;29;20032;-95
2023/06/24 13:20:37;;;;;;;20.65;18.75;;;31.20;99.90;;;;;;4910432;29;20137;-93
2023/06/24 13:23:03;;;;;;;20.98;19.17;;;30.80;99.90;;;;;;4890040;29;20111;-93
2023/06/24 13:25:33;;;;;;;23.48;19.33;;;30.30;99.90;;;;;;4890685;29;20028;-94
2023/06/24 13:28:05;;;;;;;21.17;19.63;;;29.80;99.90;;;;;;4890560;29;20028;-94
2023/06/24 13:30:33;;;;;;;20.33;18.75;;;29.60;99.90;;;;;;4890719;29;20032;-94
2023/06/24 13:33:02;;;;;;;21.17;19.67;;;29.60;99.90;;;;;;4890050;29;20075;-95
2023/06/24 13:35:35;;;;;;;20.50;18.90;;;29.50;99.90;;;;;;4895596;29;20032;-93
2023/06/24 13:38:19;;;;;;;23.33;19.27;;;29.30;99.90;;;;;;4878078;29;20558;-93
2023/06/24 13:41:09;;;;;;;20.95;19.00;;;29.10;99.90;;;;;;4902535;29;20054;-93
2023/06/24 13:43:38;;;;;;;20.90;18.98;;;28.80;99.90;;;;;;4890555;29;20485;-94
2023/06/24 13:46:06;;;;;;;19.35;17.98;;;28.60;99.90;;;;;;4906768;29;20063;-95
2023/06/24 13:48:32;;;;;;;20.17;18.58;;;28.50;99.90;;;;;;4891365;29;20024;-93
2023/06/24 13:50:59;;;;;;;20.92;19.33;;;28.40;99.90;;;;;;4902584;29;20028;-93
2023/06/24 13:53:26;;;;;;;20.55;19.05;;;28.40;99.90;;;;;;4886444;29;20032;-94
2023/06/24 13:56:15;;;;;;;21.00;19.13;;;28.10;99.90;;;;;;4886839;29;20549;-93
2023/06/24 13:58:42;;;;;;;20.13;18.63;;;28.20;99.90;;;;;;4901575;29;20465;-95
2023/06/24 14:01:09;;;;;;;20.05;18.30;;;28.30;99.90;;;;;;4886155;29;20070;-93
2023/06/24 14:03:36;;;;;;;20.05;18.33;;;28.40;99.90;;;;;;4886157;29;20032;-92
2023/06/24 14:06:04;;;;;;;20.40;18.70;;;28.40;99.90;;;;;;4885968;29;20035;-93
2023/06/24 14:08:33;;;;;;;19.92;18.17;;;28.30;99.90;;;;;;4885922;29;20088;-94
2023/06/24 14:18:06;;;;;;;20.13;18.38;;;28.50;99.90;;;;;;4913260;29;20041;-94
2023/06/24 14:21:26;;;;;;;19.40;17.80;;;28.50;99.90;;;;;;4880017;29;20123;-92
2023/06/24 14:51:22;;;;;;;19.65;18.15;;;28.70;99.90;;;;;;5467765;23;20051;-94
2023/06/24 15:25:01;;;;;;;21.67;19.40;;;28.90;99.90;;;;;;5460901;23;20083;-95
2023/06/24 15:27:28;;;;;;;24.02;18.20;;;28.80;99.90;;;;;;4923138;29;20082;-94
2023/06/24 15:29:54;;;;;;;20.02;18.52;;;28.80;99.90;;;;;;4923042;29;20400;-92
2023/06/24 15:32:20;;;;;;;20.38;18.80;;;29.10;99.90;;;;;;4929409;29;20058;-93
2023/06/24 15:34:53;;;;;;;21.00;18.90;;;29.30;99.90;;;;;;4918753;29;20470;-94
2023/06/24 15:37:20;;;;;;;19.50;17.88;;;29.50;99.90;;;;;;4919718;29;20028;-93
2023/06/24 15:39:46;;;;;;;19.92;18.42;;;29.60;99.90;;;;;;4921852;29;20039;-94
2023/06/24 15:42:14;;;;;;;19.50;17.90;;;29.30;99.90;;;;;;4923320;29;20052;-95
2023/06/24 15:44:43;;;;;;;18.55;17.25;;;29.00;99.90;;;;;;4922798;29;20024;-94
2023/06/24 15:47:10;;;;;;;20.40;18.80;;;29.10;99.90;;;;;;4922771;29;20144;-94
2023/06/24 15:49:37;;;;;;;19.88;17.73;;;29.10;99.90;;;;;;4922786;29;20107;-94
2023/06/24 15:52:04;;;;;;;19.52;18.02;;;29.00;99.90;;;;;;4906967;29;20028;-94
2023/06/24 15:54:30;;;;;;;19.55;18.15;;;28.90;99.90;;;;;;4922735;29;20028;-93
2023/06/24 15:57:06;;;;;;;19.02;17.85;;;28.90;99.90;;;;;;4922793;29;20036;-94
2023/06/24 16:31:53;;;;;;;20.35;18.73;;;27.30;99.90;;;;;;5368698;23;20050;-95
2023/06/24 16:34:20;;;;;;;20.52;18.83;;;27.20;99.90;;;;;;4933041;29;20062;-95
2023/06/24 16:36:47;;;;;;;20.00;18.40;;;27.00;99.90;;;;;;4923112;29;20503;-95
2023/06/24 16:39:13;;;;;;;19.88;18.10;;;27.00;99.90;;;;;;4922800;29;20060;-94
2023/06/24 16:41:47;;;;;;;20.33;18.67;;;26.80;99.90;;;;;;4923214;29;20028;-95
2023/06/24 16:44:13;;;;;;;19.75;18.27;;;26.80;99.90;;;;;;4925053;29;20032;-96
2023/06/24 16:46:48;;;;;;;20.50;18.58;;;26.90;99.90;;;;;;4922602;29;20087;-95
2023/06/24 16:49:18;;;;;;;20.58;19.08;;;26.80;99.90;;;;;;4922675;29;20027;-95
2023/06/24 16:51:50;;;;;;;20.27;18.65;;;26.70;99.90;;;;;;4922437;29;20034;-95
2023/06/24 16:54:27;;;;;;;;;;;;;;;;;;;;;
2023/06/24 16:56:57;;;;;;;21.13;19.40;;;26.60;99.90;;;;;;4913877;29;20028;-95
2023/06/24 16:59:28;;;;;;;20.80;19.25;;;26.60;99.90;;;;;;4903378;29;20091;-95
2023/06/24 17:02:26;;;;;;;;;;;;;;;;;;;;;
2023/06/24 17:05:26;;;;;;;;;;;;;;;;;;;;;
2023/06/24 17:08:19;;;;;;;;;;;;;;;;;;;;;
2023/06/24 17:11:01;;;;;;;20.60;18.95;;;26.70;99.90;;;;;;4966298;23;20512;-94
2023/06/24 17:13:28;;;;;;;19.63;18.13;;;26.70;99.90;;;;;;4924489;29;20063;-95
2023/06/24 17:16:16;;;;;;;21.48;19.27;;;26.60;99.90;;;;;;4947694;23;20066;-94
2023/06/24 17:18:49;;;;;;;20.47;18.67;;;26.70;99.90;;;;;;4910758;29;20031;-95
2023/06/24 17:21:15;;;;;;;20.48;18.30;;;26.70;99.90;;;;;;4912852;29;20067;-94
2023/06/24 17:23:44;;;;;;;21.05;19.10;;;26.70;99.90;;;;;;4907880;29;20032;-94
2023/06/24 17:29:58;;;;;;;19.30;18.10;;;26.50;99.90;;;;;;4862837;29;20159;-96
2023/06/24 17:36:32;;;;;;;20.80;19.30;;;26.20;99.90;;;;;;4772884;30;20164;-96
2023/06/24 17:39:14;;;;;;;19.95;18.55;;;26.00;99.90;;;;;;4757940;30;20237;-94
2023/06/24 17:42:14;;;;;;;;;;;;;;;;;;;;;
2023/06/24 17:48:26;;;;;;;;;;;;;;;;;;;;;
2023/06/24 17:51:36;;;;;;;20.25;18.20;;;26.10;99.90;;;;;;4736409;30;20508;-95
2023/06/24 17:54:24;;;;;;;19.70;18.27;;;26.00;99.90;;;;;;4724855;30;20082;-94
2023/06/24 18:00:48;;;;;;;20.58;18.88;;;25.80;99.90;;;;;;4713318;30;20150;-94
2023/06/24 18:07:20;;;;;;;20.08;18.13;;;25.70;99.90;;;;;;4570875;31;20512;-94
2023/06/24 18:10:12;;;;;;;19.77;18.20;;;25.70;99.90;;;;;;4580435;31;20045;-95
2023/06/24 18:17:20;;;;;;;;;;;;;;;;;;;;;
2023/06/24 18:20:42;;;;;;;21.40;19.10;;;25.60;99.90;;;;;;4640371;31;20170;-94
2023/06/24 18:30:49;;;;;;;21.48;19.58;;;25.50;99.90;;;;;;4652424;30;20050;-95
2023/06/24 18:37:54;;;;;;;;;;;;;;;;;;;;;
2023/06/24 18:41:06;;;;;;;20.85;18.92;;;25.40;99.90;;;;;;4636109;30;20470;-94
2023/06/24 18:44:37;;;;;;;21.80;20.08;;;25.40;99.90;;;;;;4678690;30;20485;-94
2023/06/24 18:47:38;;;;;;;21.15;18.85;;;25.40;99.90;;;;;;4732477;30;20132;-96
2023/06/24 18:50:39;;;;;;;20.33;18.67;;;25.30;99.90;;;;;;4736026;30;20535;-95
2023/06/24 18:53:31;;;;;;;;;;;;;;;;;;;;;
2023/06/24 18:56:40;;;;;;;18.52;16.95;;;25.10;99.90;;;;;;4733029;30;20207;-95
2023/06/24 18:59:42;;;;;;;15.70;14.50;;;25.10;99.90;;;;;;4734777;30;20044;-96
2023/06/24 19:02:49;;;;;;;14.68;13.30;;;25.00;99.90;;;;;;4715075;30;20539;-94
2023/06/24 19:05:45;;;;;;;14.20;11.55;;;25.00;99.90;;;;;;4700616;30;20045;-95
2023/06/24 19:08:36;;;;;;;11.30;10.15;;;25.00;99.90;;;;;;4702659;30;20045;-94
2023/06/24 19:11:17;;;;;;;10.15;8.70;;;24.90;99.90;;;;;;4718186;30;20045;-95
2023/06/24 19:14:44;;;;;;;9.15;8.02;;;24.70;99.90;;;;;;4725254;30;20064;-95
2023/06/24 19:17:53;;;;;;;;;;;24.70;99.90;;;;;;4732279;30;20087;-94
2023/06/24 19:21:15;;;;;;;;;;;;;;;;;;;;;
2023/06/24 19:28:15;;;;;;;10.02;7.53;;;24.60;99.90;;;;;;4729627;30;20052;-94
2023/06/24 19:34:53;;;;;;;;;;;;;;;;;;;;;
2023/06/24 19:40:47;;;;;;;23.02;7.68;;;24.50;99.90;;;;;;5353261;23;20090;-94
2023/06/24 19:43:14;;;;;;;18.38;8.13;;;24.50;99.90;;;;;;4926450;29;20031;-94
2023/06/24 20:14:52;;;;;;;19.77;9.97;;;24.50;99.90;;;;;;5984504;23;20023;31
2023/06/24 23:17:21;;;;;;;16.17;6.82;;;23.50;99.90;;;;;;5177199;23;20071;-93
2023/06/24 23:25:56;;;;;;;13.27;4.78;;;23.50;99.90;;;;;;4959903;23;20040;-92
2023/06/24 23:29:13;;;;;;;14.85;5.82;;;23.50;99.90;;;;;;4895455;29;20024;-93
